Time;durP1;ratioP1;P1;durP2;ratioP2;P2;SDS_P1;SDS_P2;PMS_P1;PMS_P2;Temp;Humidity;BMP_temperature;BMP_pressure;BME280_temperature;BME280_humidity;BME280_pressure;Samples;Min_cycle;Max_cycle;Signal;HPM_P1;HPM_P2
2022/06/05 00:01:44;;;;;;;0.95;0.70;;;14.20;99.90;;;;;;5055390;28;20285;-76
2022/06/05 00:04:29;;;;;;;0.85;0.40;;;14.20;99.90;;;;;;5050360;28;20235;-82
2022/06/05 00:07:06;;;;;;;1.10;0.30;;;14.30;99.90;;;;;;5055335;28;20192;-78
2022/06/05 00:09:47;;;;;;;0.47;0.30;;;14.40;99.90;;;;;;5057435;28;20185;-77
2022/06/05 00:12:19;;;;;;;0.80;0.40;;;14.40;99.90;;;;;;5056368;28;20193;-85
2022/06/05 00:14:50;;;;;;;0.47;0.32;;;14.50;99.90;;;;;;5060478;28;20225;-75
2022/06/05 00:17:23;;;;;;;0.70;0.40;;;14.60;99.90;;;;;;5057247;28;20667;-74
2022/06/05 00:19:55;;;;;;;1.73;0.55;;;14.50;99.90;;;;;;5055661;28;20186;-77
2022/06/05 00:22:26;;;;;;;0.43;0.30;;;14.60;99.90;;;;;;5055650;28;20618;-77
2022/06/05 00:24:58;;;;;;;0.50;0.40;;;14.60;99.90;;;;;;5054560;28;20637;-75
2022/06/05 00:27:36;;;;;;;8.57;3.92;;;14.70;99.90;;;;;;5055256;28;20216;-78
2022/06/05 00:30:11;;;;;;;5.07;2.63;;;14.70;99.90;;;;;;5055051;28;20197;-76
2022/06/05 00:32:45;;;;;;;6.97;2.70;;;14.80;99.90;;;;;;5049793;28;20425;-78
2022/06/05 00:35:18;;;;;;;5.87;2.10;;;15.00;99.90;;;;;;5051743;28;20496;-82
2022/06/05 00:38:01;;;;;;;0.90;0.40;;;15.10;99.90;;;;;;5052623;28;20443;-76
2022/06/05 00:40:42;;;;;;;0.75;0.40;;;15.10;99.90;;;;;;5050093;28;20181;-79
2022/06/05 00:43:15;;;;;;;3.47;0.57;;;15.20;99.90;;;;;;5056683;28;20189;-78
2022/06/05 00:45:47;;;;;;;1.05;0.40;;;15.20;99.90;;;;;;5050624;28;20193;-77
2022/06/05 00:48:17;;;;;;;2.75;0.50;;;15.30;99.90;;;;;;5052154;28;20614;-85
2022/06/05 00:50:50;;;;;;;4.43;0.80;;;15.50;99.90;;;;;;5050504;28;20527;-74
2022/06/05 00:53:20;;;;;;;2.10;0.80;;;15.60;99.90;;;;;;5049145;28;20616;-77
2022/06/05 00:55:55;;;;;;;21.45;13.23;;;15.90;99.90;;;;;;5046567;28;20194;-76
2022/06/05 00:58:26;;;;;;;3.63;2.22;;;16.10;99.90;;;;;;5050738;28;20671;-79
2022/06/05 01:00:57;;;;;;;19.05;10.00;;;16.30;99.90;;;;;;5053528;28;20728;-80
2022/06/05 01:03:28;;;;;;;3.60;2.20;;;16.40;99.90;;;;;;5048844;28;20692;-78
2022/06/05 01:05:59;;;;;;;1.60;1.10;;;16.50;99.90;;;;;;5051396;28;20189;-75
2022/06/05 01:08:30;;;;;;;1.73;0.65;;;16.70;99.90;;;;;;5053720;28;20217;-78
2022/06/05 01:11:11;;;;;;;3.72;0.90;;;16.80;99.90;;;;;;5053252;28;20251;-77
2022/06/05 01:13:55;;;;;;;1.48;0.70;;;16.80;99.90;;;;;;5051906;28;20190;-78
2022/06/05 01:16:31;;;;;;;1.30;0.50;;;16.90;99.90;;;;;;5051509;28;20189;-78
2022/06/05 01:19:15;;;;;;;0.93;0.55;;;17.00;99.90;;;;;;5049303;28;20221;-78
2022/06/05 01:22:17;;;;;;;0.60;0.40;;;17.10;99.90;;;;;;5053747;28;20189;-78
2022/06/05 01:25:06;;;;;;;0.75;0.60;;;17.20;99.90;;;;;;5042644;28;20248;-78
2022/06/05 01:27:46;;;;;;;0.77;0.50;;;17.20;99.90;;;;;;5050883;28;20216;-77
2022/06/05 01:30:20;;;;;;;0.50;0.40;;;17.20;99.90;;;;;;5050462;28;20235;-80
2022/06/05 01:32:57;;;;;;;0.30;0.30;;;17.40;99.90;;;;;;5050898;28;20205;-77
2022/06/05 01:35:32;;;;;;;1.05;0.40;;;17.40;99.90;;;;;;5049665;28;20201;-77
2022/06/05 01:38:06;;;;;;;0.68;0.40;;;17.40;99.90;;;;;;5050793;28;20204;-79
2022/06/05 01:40:44;;;;;;;0.95;0.40;;;17.40;99.90;;;;;;5050943;28;20651;-76
2022/06/05 01:43:20;;;;;;;0.30;0.30;;;17.50;99.90;;;;;;5048496;28;20186;-79
2022/06/05 01:45:55;;;;;;;1.38;0.40;;;17.50;99.90;;;;;;5048569;28;20598;-76
2022/06/05 01:48:29;;;;;;;1.73;0.45;;;17.60;99.90;;;;;;5050182;28;20216;-78
2022/06/05 01:51:06;;;;;;;0.73;0.32;;;17.70;99.90;;;;;;5044157;28;20206;-76
2022/06/05 01:53:40;;;;;;;0.73;0.50;;;17.70;99.90;;;;;;5046980;28;20197;-77
2022/06/05 01:56:17;;;;;;;0.45;0.45;;;17.70;99.90;;;;;;5046718;28;20229;-78
2022/06/05 01:58:54;;;;;;;0.98;0.30;;;17.80;99.90;;;;;;5056633;28;20198;-78
2022/06/05 02:01:35;;;;;;;0.40;0.40;;;17.80;99.90;;;;;;5049147;28;20221;-76
2022/06/05 02:04:12;;;;;;;0.50;0.40;;;17.80;99.90;;;;;;5046684;28;20240;-80
2022/06/05 02:06:46;;;;;;;1.10;0.57;;;17.80;99.90;;;;;;5049303;28;20201;-78
2022/06/05 02:09:24;;;;;;;1.88;0.40;;;17.80;99.90;;;;;;5050115;28;20221;-79
2022/06/05 02:11:55;;;;;;;2.55;0.30;;;17.80;99.90;;;;;;5045447;28;20201;-77
2022/06/05 02:14:29;;;;;;;0.50;0.50;;;17.90;99.90;;;;;;5046714;28;20194;-76
2022/06/05 02:17:00;;;;;;;0.60;0.30;;;17.80;99.90;;;;;;5046435;28;20319;-76
2022/06/05 02:19:31;;;;;;;0.50;0.30;;;17.80;99.90;;;;;;5047001;28;20299;-75
2022/06/05 02:22:06;;;;;;;0.82;0.43;;;17.80;99.90;;;;;;5048669;28;20592;-77
2022/06/05 02:24:36;;;;;;;2.00;0.30;;;17.80;99.90;;;;;;5049698;28;20205;-77
2022/06/05 02:27:09;;;;;;;0.30;0.30;;;17.70;99.90;;;;;;5047120;28;20204;-78
2022/06/05 02:29:41;;;;;;;0.90;0.30;;;17.50;99.90;;;;;;5046340;28;20252;-77
2022/06/05 02:32:25;;;;;;;1.10;0.30;;;17.40;99.90;;;;;;5047052;28;20536;-77
2022/06/05 02:35:05;;;;;;;0.47;0.40;;;17.40;99.90;;;;;;5048966;28;20252;-77
2022/06/05 02:37:49;;;;;;;0.57;0.47;;;17.50;99.90;;;;;;5045498;28;20193;-78
2022/06/05 02:40:27;;;;;;;0.98;0.40;;;17.70;99.90;;;;;;5047509;28;20200;-78
2022/06/05 02:43:05;;;;;;;3.80;0.40;;;17.80;99.90;;;;;;5051914;28;20679;-77
2022/06/05 02:45:47;;;;;;;1.73;0.50;;;17.90;99.90;;;;;;5050240;28;20648;-77
2022/06/05 02:48:28;;;;;;;0.38;0.38;;;17.90;99.90;;;;;;5047606;28;20218;-76
2022/06/05 02:51:04;;;;;;;1.00;0.30;;;18.00;99.90;;;;;;5053089;28;20185;-76
2022/06/05 02:53:48;;;;;;;0.40;0.40;;;18.00;99.90;;;;;;5047374;28;20197;-76
2022/06/05 02:56:19;;;;;;;3.38;0.40;;;18.00;99.90;;;;;;5052938;28;20189;-77
2022/06/05 02:58:52;;;;;;;0.63;0.30;;;18.00;99.90;;;;;;5049215;28;20193;-75
2022/06/05 03:04:12;;;;;;;0.75;0.40;;;17.90;99.90;;;;;;5051886;28;20597;-76
2022/06/05 03:06:44;;;;;;;0.98;0.30;;;17.90;99.90;;;;;;5050477;28;20302;-74
2022/06/05 03:09:15;;;;;;;0.60;0.30;;;17.90;99.90;;;;;;5052107;28;20210;-77
2022/06/05 03:11:46;;;;;;;1.77;0.40;;;17.80;99.90;;;;;;5052060;28;20181;-77
2022/06/05 03:14:16;;;;;;;1.63;0.40;;;17.70;99.90;;;;;;5050772;28;20194;-76
2022/06/05 03:16:49;;;;;;;0.30;0.30;;;17.70;99.90;;;;;;5048239;28;20665;-75
2022/06/05 03:19:19;;;;;;;0.43;0.20;;;17.60;99.90;;;;;;5050685;28;20201;-76
2022/06/05 03:21:50;;;;;;;0.85;0.30;;;17.60;99.90;;;;;;5050781;28;20198;-76
2022/06/05 03:24:21;;;;;;;0.60;0.30;;;17.50;99.90;;;;;;5052914;28;20186;-77
2022/06/05 03:26:52;;;;;;;1.17;0.30;;;17.50;99.90;;;;;;5053332;28;20185;-78
2022/06/05 03:29:22;;;;;;;1.00;0.40;;;17.50;99.90;;;;;;5049758;28;20217;-76
2022/06/05 03:31:55;;;;;;;1.70;0.30;;;17.40;99.90;;;;;;5052473;28;20601;-78
2022/06/05 03:34:26;;;;;;;0.47;0.20;;;17.30;99.90;;;;;;5052374;28;20216;-76
2022/06/05 03:36:56;;;;;;;0.68;0.20;;;17.20;99.90;;;;;;5050053;28;20200;-76
2022/06/05 03:39:27;;;;;;;0.32;0.30;;;17.10;99.90;;;;;;5050100;28;20189;-76
2022/06/05 03:41:57;;;;;;;0.40;0.40;;;17.10;99.90;;;;;;5052473;28;20189;-76
2022/06/05 03:44:28;;;;;;;1.95;0.30;;;17.00;99.90;;;;;;5051053;28;20696;-78
2022/06/05 03:47:01;;;;;;;0.28;0.28;;;17.00;99.90;;;;;;5048662;28;20204;-78
2022/06/05 03:49:31;;;;;;;0.98;0.28;;;16.90;99.90;;;;;;5045136;28;20213;-80
2022/06/05 03:52:02;;;;;;;1.50;0.30;;;16.80;99.90;;;;;;5051205;28;20204;-79
2022/06/05 03:54:33;;;;;;;0.50;0.28;;;16.80;99.90;;;;;;5050911;28;20205;-78
2022/06/05 03:57:04;;;;;;;0.63;0.40;;;16.80;99.90;;;;;;5051757;28;20194;-79
2022/06/05 03:59:37;;;;;;;0.75;0.25;;;16.80;99.90;;;;;;5050796;28;20197;-75
2022/06/05 04:02:09;;;;;;;0.88;0.28;;;16.90;99.90;;;;;;5049949;28;20221;-78
2022/06/05 04:04:40;;;;;;;1.80;0.35;;;16.90;99.90;;;;;;5051866;28;20229;-80
2022/06/05 04:07:11;;;;;;;0.55;0.30;;;16.80;99.90;;;;;;5048385;28;20205;-77
2022/06/05 04:09:41;;;;;;;0.40;0.30;;;16.80;99.90;;;;;;5051715;28;20221;-77
2022/06/05 04:12:12;;;;;;;0.70;0.35;;;16.80;99.90;;;;;;5052027;28;20618;-78
2022/06/05 04:14:43;;;;;;;1.05;0.40;;;16.80;99.90;;;;;;5051304;28;20197;-79
2022/06/05 04:17:16;;;;;;;1.00;0.30;;;16.80;99.90;;;;;;5051264;28;20251;-79
2022/06/05 04:19:47;;;;;;;0.65;0.30;;;16.70;99.90;;;;;;5052503;28;20201;-78
2022/06/05 04:22:17;;;;;;;0.40;0.22;;;16.70;99.90;;;;;;5054693;28;20613;-86
2022/06/05 04:24:48;;;;;;;2.05;0.45;;;16.70;99.90;;;;;;5054257;28;20193;-78
2022/06/05 04:27:19;;;;;;;0.52;0.30;;;16.70;99.90;;;;;;5054868;28;20193;-78
2022/06/05 04:29:49;;;;;;;1.05;0.35;;;16.70;99.90;;;;;;5055420;28;20225;-77
2022/06/05 04:32:22;;;;;;;0.50;0.30;;;16.70;99.90;;;;;;5056642;28;20255;-77
2022/06/05 04:34:54;;;;;;;0.40;0.32;;;16.60;99.90;;;;;;5054652;28;20255;-78
2022/06/05 04:37:25;;;;;;;0.45;0.30;;;16.60;99.90;;;;;;5055820;28;20186;-77
2022/06/05 04:39:56;;;;;;;0.75;0.40;;;16.60;99.90;;;;;;5055690;28;20197;-80
2022/06/05 04:42:26;;;;;;;0.38;0.30;;;16.60;99.90;;;;;;5053165;28;20211;-81
2022/06/05 04:44:57;;;;;;;1.95;0.30;;;16.50;99.90;;;;;;5055759;28;20193;-79
2022/06/05 04:47:30;;;;;;;0.20;0.20;;;16.60;99.90;;;;;;5054045;28;20200;-77
2022/06/05 04:50:00;;;;;;;1.30;0.22;;;16.50;99.90;;;;;;5054256;28;20221;-78
2022/06/05 04:52:31;;;;;;;6.45;4.85;;;16.40;99.90;;;;;;5055417;28;20182;-80
2022/06/05 04:55:02;;;;;;;46.97;26.80;;;16.50;99.90;;;;;;5053672;28;20197;-76
2022/06/05 04:57:32;;;;;;;17.20;10.63;;;16.40;99.90;;;;;;5051570;28;20675;-78
2022/06/05 05:00:03;;;;;;;1.00;0.80;;;16.40;99.90;;;;;;5053339;28;20194;-77
2022/06/05 05:02:36;;;;;;;3.40;2.20;;;16.50;99.90;;;;;;5053062;28;20249;-78
2022/06/05 05:05:07;;;;;;;0.55;0.30;;;16.40;99.90;;;;;;5052143;28;20738;-80
2022/06/05 05:07:38;;;;;;;2.03;0.85;;;16.40;99.90;;;;;;5053434;28;20588;-79
2022/06/05 05:10:09;;;;;;;1.60;0.63;;;16.40;99.90;;;;;;5054023;28;20224;-78
2022/06/05 05:12:40;;;;;;;1.90;0.55;;;16.30;99.90;;;;;;5054948;28;20189;-77
2022/06/05 05:15:12;;;;;;;2.70;0.80;;;16.20;99.90;;;;;;5054955;28;20559;-78
2022/06/05 05:17:45;;;;;;;1.77;0.60;;;16.20;99.90;;;;;;5053846;28;20567;-77
2022/06/05 05:20:19;;;;;;;2.25;0.70;;;16.10;99.90;;;;;;5054819;28;20243;-79
2022/06/05 05:22:50;;;;;;;0.65;0.50;;;16.10;99.90;;;;;;5052105;28;20224;-81
2022/06/05 05:25:21;;;;;;;1.02;0.57;;;16.10;99.90;;;;;;5046666;28;20205;-81
2022/06/05 05:27:51;;;;;;;0.77;0.50;;;16.10;99.90;;;;;;5050412;28;20197;-80
2022/06/05 05:30:22;;;;;;;0.52;0.40;;;16.10;99.90;;;;;;5053492;28;20621;-79
2022/06/05 05:32:55;;;;;;;1.48;0.50;;;16.00;99.90;;;;;;5053714;28;20209;-79
2022/06/05 05:35:26;;;;;;;0.85;0.60;;;15.90;99.90;;;;;;5052860;28;20670;-77
2022/06/05 05:37:56;;;;;;;3.75;2.35;;;15.90;99.90;;;;;;5051394;28;20208;-77
2022/06/05 05:43:14;;;;;;;4.28;2.67;;;15.80;99.90;;;;;;5047927;28;20204;-77
2022/06/05 05:45:46;;;;;;;8.75;5.10;;;15.80;99.90;;;;;;5049274;28;20190;-80
2022/06/05 05:48:19;;;;;;;5.03;2.00;;;15.70;99.90;;;;;;5048475;28;20665;-82
2022/06/05 05:50:49;;;;;;;2.45;1.30;;;15.70;99.90;;;;;;5047465;28;21002;-81
2022/06/05 05:53:20;;;;;;;0.93;0.70;;;15.70;99.90;;;;;;5048959;28;20204;-79
2022/06/05 05:55:51;;;;;;;2.20;1.23;;;15.70;99.90;;;;;;5046595;28;20727;-79
2022/06/05 05:58:22;;;;;;;1.20;0.80;;;15.60;99.90;;;;;;5056519;28;20190;-76
2022/06/05 06:00:52;;;;;;;0.93;0.38;;;15.60;99.90;;;;;;5051657;28;20229;-79
2022/06/05 06:03:28;;;;;;;0.70;0.50;;;15.60;99.90;;;;;;5052752;28;20248;-78
2022/06/05 06:06:00;;;;;;;0.95;0.50;;;15.50;99.90;;;;;;5053959;28;20651;-77
2022/06/05 06:08:31;;;;;;;1.30;0.63;;;15.50;99.90;;;;;;5050669;28;20276;-79
2022/06/05 06:11:01;;;;;;;1.48;0.45;;;15.50;99.90;;;;;;5049939;28;20249;-80
2022/06/05 06:13:32;;;;;;;0.60;0.50;;;15.40;99.90;;;;;;5052811;28;20202;-78
2022/06/05 06:16:03;;;;;;;1.70;0.60;;;15.40;99.90;;;;;;5052508;28;20689;-79
2022/06/05 06:18:35;;;;;;;0.63;0.50;;;15.40;99.90;;;;;;5053021;28;20221;-79
2022/06/05 06:21:06;;;;;;;0.82;0.30;;;15.30;99.90;;;;;;5046188;28;20186;-78
2022/06/05 06:23:37;;;;;;;0.75;0.50;;;15.30;99.90;;;;;;5053605;28;20194;-77
2022/06/05 06:26:08;;;;;;;1.17;0.43;;;15.20;99.90;;;;;;5046225;28;20193;-79
2022/06/05 06:28:39;;;;;;;0.73;0.52;;;15.20;99.90;;;;;;5052106;28;20194;-79
2022/06/05 06:31:11;;;;;;;0.90;0.50;;;15.20;99.90;;;;;;5046195;28;20189;-79
2022/06/05 06:33:45;;;;;;;0.95;0.50;;;15.10;99.90;;;;;;5052480;28;20212;-78
2022/06/05 06:36:17;;;;;;;0.52;0.40;;;15.10;99.90;;;;;;5052549;28;20186;-79
2022/06/05 06:38:48;;;;;;;0.82;0.75;;;15.00;99.90;;;;;;5053059;28;20653;-81
2022/06/05 06:41:22;;;;;;;0.50;0.50;;;15.00;99.90;;;;;;5051280;28;20196;-80
2022/06/05 06:43:53;;;;;;;0.52;0.50;;;14.90;99.90;;;;;;5049362;28;20184;-81
2022/06/05 06:46:23;;;;;;;0.50;0.40;;;14.90;99.90;;;;;;5055502;28;20189;-78
2022/06/05 06:48:56;;;;;;;0.90;0.60;;;14.80;99.90;;;;;;5047015;28;20522;-78
2022/06/05 06:51:27;;;;;;;1.05;0.63;;;14.80;99.90;;;;;;5047866;28;20205;-77
2022/06/05 06:53:57;;;;;;;0.52;0.50;;;14.70;99.90;;;;;;5049624;28;20661;-78
2022/06/05 06:56:29;;;;;;;0.52;0.52;;;14.70;99.90;;;;;;5049005;28;20610;-78
2022/06/05 06:59:02;;;;;;;1.02;0.55;;;14.60;99.90;;;;;;5045530;28;20684;-81
2022/06/05 07:01:33;;;;;;;0.50;0.40;;;14.60;99.90;;;;;;5049885;28;20244;-79
2022/06/05 07:04:05;;;;;;;0.82;0.50;;;14.60;99.90;;;;;;5047271;28;20240;-79
2022/06/05 07:06:36;;;;;;;0.95;0.60;;;14.60;99.90;;;;;;5047261;28;20194;-80
2022/06/05 07:09:07;;;;;;;1.15;0.65;;;14.50;99.90;;;;;;5047840;28;20193;-80
2022/06/05 07:11:37;;;;;;;1.73;0.80;;;14.50;99.90;;;;;;5049873;28;20198;-79
2022/06/05 07:14:09;;;;;;;0.70;0.70;;;14.50;99.90;;;;;;5054259;28;20206;-80
2022/06/05 07:16:39;;;;;;;2.03;0.70;;;14.40;99.90;;;;;;5049096;28;20198;-80
2022/06/05 07:19:12;;;;;;;1.52;0.90;;;14.40;99.90;;;;;;5047453;28;20606;-79
2022/06/05 07:21:43;;;;;;;1.05;0.93;;;14.40;99.90;;;;;;5049542;28;20213;-82
2022/06/05 07:24:14;;;;;;;1.40;0.80;;;14.40;99.90;;;;;;5047725;28;20204;-78
2022/06/05 07:26:44;;;;;;;1.00;0.80;;;14.30;99.90;;;;;;5046551;28;20204;-82
2022/06/05 07:29:15;;;;;;;1.02;0.80;;;14.40;99.90;;;;;;5048812;28;20193;-80
2022/06/05 07:31:46;;;;;;;1.80;0.80;;;14.30;99.90;;;;;;5041798;28;20201;-79
2022/06/05 07:34:18;;;;;;;1.67;0.85;;;14.30;99.90;;;;;;5047944;28;20569;-79
2022/06/05 07:36:50;;;;;;;1.60;0.80;;;14.40;99.90;;;;;;5046981;28;20194;-79
2022/06/05 07:39:20;;;;;;;1.02;0.88;;;14.30;99.90;;;;;;5044828;28;20743;-78
2022/06/05 07:41:51;;;;;;;1.23;1.02;;;14.30;99.90;;;;;;5047152;28;20560;-79
2022/06/05 07:44:22;;;;;;;1.17;1.02;;;14.30;99.90;;;;;;5054526;28;20537;-79
2022/06/05 07:46:52;;;;;;;1.33;0.80;;;14.30;99.90;;;;;;5050389;28;20203;-78
2022/06/05 07:49:25;;;;;;;1.90;1.00;;;14.20;99.90;;;;;;5049129;28;20197;-77
2022/06/05 07:54:42;;;;;;;2.65;0.80;;;14.20;99.90;;;;;;5048952;28;20873;-79
2022/06/05 07:57:14;;;;;;;1.40;0.73;;;14.20;99.90;;;;;;5052771;28;20205;-79
2022/06/05 07:59:46;;;;;;;1.00;0.65;;;14.10;99.90;;;;;;5053063;28;20197;-78
2022/06/05 08:02:18;;;;;;;3.75;0.73;;;14.10;99.90;;;;;;5051047;28;20225;-77
2022/06/05 08:04:52;;;;;;;1.10;0.80;;;14.10;99.90;;;;;;5056115;28;20221;-78
2022/06/05 08:07:24;;;;;;;1.58;0.90;;;14.10;99.90;;;;;;5055169;28;20272;-77
2022/06/05 08:09:55;;;;;;;2.35;0.90;;;14.10;99.90;;;;;;5048012;28;20247;-77
2022/06/05 08:12:28;;;;;;;1.65;0.80;;;14.10;99.90;;;;;;5048852;28;20273;-79
2022/06/05 08:14:59;;;;;;;1.08;0.73;;;14.10;99.90;;;;;;5052397;28;20201;-78
2022/06/05 08:17:32;;;;;;;2.30;0.80;;;14.10;99.90;;;;;;5053693;28;20201;-77
2022/06/05 08:20:05;;;;;;;1.00;0.90;;;14.10;99.90;;;;;;5053532;28;20293;-77
2022/06/05 08:22:36;;;;;;;1.30;1.08;;;14.00;99.90;;;;;;5050835;28;20590;-76
2022/06/05 08:25:07;;;;;;;1.98;1.10;;;14.00;99.90;;;;;;5051515;28;20664;-77
2022/06/05 08:27:37;;;;;;;1.40;0.88;;;14.00;99.90;;;;;;5052287;28;20193;-77
2022/06/05 08:30:09;;;;;;;1.70;0.85;;;14.00;99.90;;;;;;5050943;28;20259;-77
2022/06/05 08:32:40;;;;;;;0.77;0.73;;;13.90;99.90;;;;;;5050912;28;20194;-77
2022/06/05 08:35:13;;;;;;;0.70;0.70;;;13.90;99.90;;;;;;5049828;28;20190;-79
2022/06/05 08:43:40;;;;;;;0.93;0.77;;;13.80;99.90;;;;;;5051685;28;20197;-77
2022/06/05 08:46:18;;;;;;;1.27;0.77;;;13.80;99.90;;;;;;5047112;28;20210;-77
2022/06/05 08:48:53;;;;;;;1.08;0.80;;;13.70;99.90;;;;;;5054064;28;20265;-76
2022/06/05 08:51:36;;;;;;;0.80;0.70;;;13.70;99.90;;;;;;5049056;28;20224;-77
2022/06/05 08:54:12;;;;;;;1.17;0.88;;;13.70;99.90;;;;;;5053387;28;20197;-76
2022/06/05 08:56:46;;;;;;;1.33;0.77;;;13.60;99.90;;;;;;5050244;28;20600;-76
2022/06/05 08:59:23;;;;;;;2.13;0.80;;;13.60;99.90;;;;;;5054927;28;20201;-78
2022/06/05 09:02:00;;;;;;;1.20;0.80;;;13.50;99.90;;;;;;5050324;28;20225;-77
2022/06/05 09:04:49;;;;;;;1.33;0.80;;;13.50;99.90;;;;;;5049517;28;20232;-76
2022/06/05 09:07:26;;;;;;;1.15;0.85;;;13.50;99.90;;;;;;5050491;28;20665;-78
2022/06/05 09:10:00;;;;;;;0.70;0.70;;;13.40;99.90;;;;;;5047636;28;20213;-78
2022/06/05 09:12:39;;;;;;;1.10;0.82;;;13.40;99.90;;;;;;5051757;28;20201;-78
2022/06/05 09:15:18;;;;;;;0.95;0.80;;;13.40;99.90;;;;;;5047935;28;20555;-77
2022/06/05 09:17:56;;;;;;;2.38;0.70;;;13.40;99.90;;;;;;5051589;28;20222;-76
2022/06/05 09:20:38;;;;;;;1.33;0.70;;;13.30;99.90;;;;;;5048101;28;20634;-77
2022/06/05 09:23:19;;;;;;;0.73;0.70;;;13.30;99.90;;;;;;5047723;28;20656;-78
2022/06/05 09:25:58;;;;;;;1.48;0.70;;;13.30;99.90;;;;;;5050706;28;20189;-77
2022/06/05 09:28:52;;;;;;;0.80;0.80;;;13.30;99.90;;;;;;5049787;28;20193;-79
2022/06/05 09:31:46;;;;;;;0.65;0.50;;;13.30;99.90;;;;;;5050808;28;20229;-81
2022/06/05 09:34:20;;;;;;;0.68;0.68;;;13.30;99.90;;;;;;5050648;28;20212;-80
2022/06/05 09:37:00;;;;;;;0.82;0.70;;;13.20;99.90;;;;;;5049549;28;20675;-78
2022/06/05 09:39:36;;;;;;;1.42;0.63;;;13.20;99.90;;;;;;5046590;28;20198;-79
2022/06/05 09:42:29;;;;;;;0.82;0.55;;;13.20;99.90;;;;;;5053824;28;20201;-78
2022/06/05 09:45:18;;;;;;;0.75;0.70;;;13.20;99.90;;;;;;5047631;28;20185;-76
2022/06/05 09:47:57;;;;;;;0.70;0.70;;;13.10;99.90;;;;;;5051113;28;20202;-77
2022/06/05 09:50:30;;;;;;;0.98;0.65;;;13.10;99.90;;;;;;5049848;28;20213;-77
2022/06/05 09:53:01;;;;;;;0.75;0.75;;;13.10;99.90;;;;;;5052054;28;20193;-76
2022/06/05 09:55:49;;;;;;;0.63;0.60;;;13.10;99.90;;;;;;5051268;28;20197;-77
2022/06/05 09:58:39;;;;;;;0.70;0.60;;;13.00;99.90;;;;;;5050879;28;20209;-80
2022/06/05 10:01:26;;;;;;;0.65;0.65;;;13.00;99.90;;;;;;5053664;28;20221;-77
2022/06/05 10:03:57;;;;;;;0.50;0.50;;;13.00;99.90;;;;;;5048947;28;20604;-77
2022/06/05 10:06:32;;;;;;;0.60;0.60;;;12.90;99.90;;;;;;5049190;28;20194;-81
2022/06/05 10:09:11;;;;;;;0.65;0.50;;;12.90;99.90;;;;;;5044381;28;20204;-78
2022/06/05 10:11:51;;;;;;;0.50;0.50;;;12.90;99.90;;;;;;5051621;28;20240;-78
2022/06/05 10:14:38;;;;;;;0.63;0.60;;;12.80;99.90;;;;;;5049771;28;20201;-78
2022/06/05 10:17:18;;;;;;;1.25;0.70;;;12.80;99.90;;;;;;5048587;28;20672;-77
2022/06/05 10:20:09;;;;;;;1.13;0.60;;;12.80;99.90;;;;;;5050590;28;20193;-79
2022/06/05 10:22:46;;;;;;;1.23;0.70;;;12.80;99.90;;;;;;5048972;28;20208;-77
2022/06/05 10:25:29;;;;;;;0.80;0.70;;;12.70;99.90;;;;;;5047628;28;20676;-87
2022/06/05 10:28:06;;;;;;;1.27;0.70;;;12.70;99.90;;;;;;5050369;28;20193;-76
2022/06/05 10:30:41;;;;;;;0.60;0.60;;;12.70;99.90;;;;;;5047787;28;20213;-78
2022/06/05 10:33:23;;;;;;;0.50;0.50;;;12.70;99.90;;;;;;5048172;28;20657;-78
2022/06/05 10:36:01;;;;;;;0.93;0.60;;;12.70;99.90;;;;;;5049610;28;20228;-78
2022/06/05 10:38:43;;;;;;;1.35;0.70;;;12.60;99.90;;;;;;5044914;28;20193;-78
2022/06/05 10:41:22;;;;;;;1.05;0.70;;;12.60;99.90;;;;;;5048656;28;20225;-77
2022/06/05 10:44:18;;;;;;;0.60;0.60;;;12.60;99.90;;;;;;5050189;28;20679;-77
2022/06/05 10:47:03;;;;;;;0.60;0.50;;;12.60;99.90;;;;;;5049988;28;20193;-78
2022/06/05 10:49:39;;;;;;;1.13;0.88;;;12.60;99.90;;;;;;5043866;28;20213;-78
2022/06/05 10:52:22;;;;;;;0.75;0.75;;;12.50;99.90;;;;;;5051097;28;20237;-78
2022/06/05 10:54:58;;;;;;;0.95;0.50;;;12.50;99.90;;;;;;5047647;28;20216;-79
2022/06/05 10:57:34;;;;;;;0.52;0.52;;;12.50;99.90;;;;;;5044543;28;20197;-78
2022/06/05 11:00:17;;;;;;;0.50;0.50;;;12.50;99.90;;;;;;5049493;28;20216;-76
2022/06/05 11:03:08;;;;;;;0.50;0.50;;;12.50;99.90;;;;;;5050010;28;20190;-82
2022/06/05 11:06:06;;;;;;;0.55;0.50;;;12.50;99.90;;;;;;5044700;28;20182;-78
2022/06/05 11:08:47;;;;;;;0.43;0.40;;;12.50;99.90;;;;;;5045288;28;20208;-77
2022/06/05 11:14:19;;;;;;;0.73;0.43;;;12.50;99.90;;;;;;5052917;28;20279;-78
2022/06/05 11:16:57;;;;;;;0.80;0.50;;;12.50;99.90;;;;;;5047501;28;20185;-78
2022/06/05 11:19:37;;;;;;;0.80;0.50;;;12.50;99.90;;;;;;5052547;28;20205;-77
2022/06/05 11:22:14;;;;;;;0.35;0.35;;;12.40;99.90;;;;;;5053007;28;20274;-77
2022/06/05 11:24:49;;;;;;;1.75;0.55;;;12.40;99.90;;;;;;5046260;28;20196;-78
2022/06/05 11:27:30;;;;;;;0.52;0.43;;;12.40;99.90;;;;;;5051849;28;20197;-79
2022/06/05 11:30:06;;;;;;;0.40;0.40;;;12.40;99.90;;;;;;5050512;28;20660;-77
2022/06/05 11:32:48;;;;;;;0.40;0.40;;;12.30;99.90;;;;;;5049029;28;20222;-78
2022/06/05 11:35:36;;;;;;;1.05;0.50;;;12.30;99.90;;;;;;5049625;28;20205;-78
2022/06/05 11:38:24;;;;;;;0.63;0.50;;;12.30;99.90;;;;;;5050843;28;20201;-78
2022/06/05 11:41:02;;;;;;;0.40;0.40;;;12.30;99.90;;;;;;5050871;28;20209;-77
2022/06/05 11:43:36;;;;;;;1.13;0.50;;;12.30;99.90;;;;;;5056509;28;20244;-78
2022/06/05 11:46:20;;;;;;;0.68;0.50;;;12.30;99.90;;;;;;5047005;28;20205;-78
2022/06/05 11:48:58;;;;;;;1.17;0.55;;;12.30;99.90;;;;;;5048476;28;20201;-78
2022/06/05 11:51:34;;;;;;;0.50;0.40;;;12.30;99.90;;;;;;5049508;28;20228;-78
2022/06/05 11:54:16;;;;;;;0.60;0.50;;;12.20;99.90;;;;;;5052089;28;20582;-82
2022/06/05 11:57:01;;;;;;;0.88;0.55;;;12.20;99.90;;;;;;5049548;28;20201;-77
2022/06/05 11:59:39;;;;;;;0.85;0.47;;;12.20;99.90;;;;;;5050350;28;20228;-76
2022/06/05 12:02:35;;;;;;;0.50;0.50;;;12.20;99.90;;;;;;5051728;28;20260;-78
2022/06/05 12:05:15;;;;;;;1.33;0.43;;;12.20;99.90;;;;;;5043670;28;20237;-77
2022/06/05 12:07:48;;;;;;;0.40;0.40;;;12.20;99.90;;;;;;5049701;28;20197;-77
2022/06/05 12:10:28;;;;;;;0.82;0.40;;;12.20;99.90;;;;;;5048932;28;20645;-78
2022/06/05 12:13:10;;;;;;;0.73;0.40;;;12.20;99.90;;;;;;5052364;28;20251;-78
2022/06/05 12:15:58;;;;;;;0.43;0.43;;;12.20;99.90;;;;;;5049738;28;20198;-79
2022/06/05 12:18:33;;;;;;;0.80;0.63;;;12.10;99.90;;;;;;5052186;28;20217;-78
2022/06/05 12:21:14;;;;;;;2.38;0.70;;;12.10;99.90;;;;;;5044579;28;20659;-79
2022/06/05 12:23:51;;;;;;;0.57;0.57;;;12.10;99.90;;;;;;5050825;28;20201;-79
2022/06/05 12:26:32;;;;;;;0.50;0.50;;;12.10;99.90;;;;;;5052056;28;20564;-80
2022/06/05 12:29:08;;;;;;;0.65;0.40;;;12.10;99.90;;;;;;5050250;28;20608;-76
2022/06/05 12:31:42;;;;;;;0.70;0.47;;;12.10;99.90;;;;;;5051211;28;20210;-78
2022/06/05 12:34:18;;;;;;;0.40;0.40;;;12.20;99.90;;;;;;5042707;28;20189;-79
2022/06/05 12:36:57;;;;;;;0.38;0.38;;;12.10;99.90;;;;;;5050011;28;20193;-77
2022/06/05 12:39:31;;;;;;;0.50;0.47;;;12.10;99.90;;;;;;5055911;28;20217;-77
2022/06/05 12:42:21;;;;;;;1.17;0.50;;;12.10;99.90;;;;;;5061673;28;20194;-77
2022/06/05 12:44:54;;;;;;;0.40;0.40;;;12.00;99.90;;;;;;5055591;28;20185;-77
2022/06/05 12:47:41;;;;;;;0.65;0.60;;;12.00;99.90;;;;;;5055770;28;20189;-78
2022/06/05 12:50:45;;;;;;;0.40;0.40;;;12.00;99.90;;;;;;5054529;28;20190;-77
2022/06/05 12:53:30;;;;;;;0.40;0.32;;;11.90;99.90;;;;;;5035621;28;20200;-79
2022/06/05 12:56:09;;;;;;;0.40;0.40;;;11.90;99.90;;;;;;5053415;28;20201;-78
2022/06/05 12:58:51;;;;;;;0.50;0.50;;;11.90;99.90;;;;;;5054950;28;20280;-77
2022/06/05 13:01:27;;;;;;;0.40;0.40;;;11.90;99.90;;;;;;5042261;28;20217;-77
2022/06/05 13:04:02;;;;;;;0.50;0.50;;;11.80;99.90;;;;;;5053812;28;20237;-79
2022/06/05 13:06:44;;;;;;;0.40;0.38;;;11.80;99.90;;;;;;5048686;28;20653;-78
2022/06/05 13:09:23;;;;;;;0.65;0.50;;;11.80;99.90;;;;;;5053277;28;20194;-76
2022/06/05 13:11:57;;;;;;;1.35;0.52;;;11.80;99.90;;;;;;5053368;28;20291;-79
2022/06/05 13:14:42;;;;;;;0.50;0.50;;;11.70;99.90;;;;;;5054246;28;20596;-76
2022/06/05 13:17:27;;;;;;;0.40;0.40;;;11.70;99.90;;;;;;5053739;28;20665;-77
2022/06/05 13:20:01;;;;;;;0.55;0.55;;;11.70;99.90;;;;;;5055282;28;20201;-78
2022/06/05 13:22:37;;;;;;;1.48;0.43;;;11.60;99.90;;;;;;5054050;28;20186;-76
2022/06/05 13:25:17;;;;;;;0.60;0.60;;;11.70;99.90;;;;;;5054299;28;20205;-78
2022/06/05 13:28:02;;;;;;;0.40;0.40;;;11.60;99.90;;;;;;5046699;28;20284;-77
2022/06/05 13:30:36;;;;;;;0.73;0.40;;;11.70;99.90;;;;;;5052660;28;20267;-76
2022/06/05 13:33:11;;;;;;;0.30;0.30;;;11.70;99.90;;;;;;5054054;28;20228;-77
2022/06/05 13:35:48;;;;;;;0.40;0.40;;;11.70;99.90;;;;;;5054944;28;20189;-76
2022/06/05 13:38:27;;;;;;;0.40;0.40;;;11.70;99.90;;;;;;5052850;28;20197;-77
2022/06/05 13:41:09;;;;;;;0.30;0.30;;;11.70;99.90;;;;;;5048964;28;20243;-78
2022/06/05 13:43:42;;;;;;;0.38;0.38;;;11.70;99.90;;;;;;5052685;28;20208;-76
2022/06/05 13:46:30;;;;;;;0.45;0.40;;;11.70;99.90;;;;;;5054764;28;20637;-79